Baltimore, Maryland
Traffic Map
Current Weather Conditions
Baltimore, Maryland
Scattered Clouds
Scattered Clouds
70°
Feels Like: 70°
Wind Chill: 70° Ceiling: Unl
Heat Index: 70° Visibility: 10mi
Dew Point: 68° Wind: 0mph
Humidity: 93% Direction: ° ()
Pressure: 30.16in Gusts: 0mph
Raw Report DataKBWI 220854Z 00000KT 10SM FEW007 SCT250 21/20 A3016 RMK AO2 SLP210 T02110200 55004
Traffic Incident Summary
Active as of:
Severity:
Category:
InformationThere was an issue retrieving the traffic information for this location. Please try a different location or try again shortly.
Advertisements
Track Severe Weather on mobile